VTSP/HKT METAR and TAF weather

Enter ICAO airport designator
Station Type Date Time Source
VTSP METAR 2021/03/05 01:00 UTC NOAA

VTSP 050100Z 05003KT 350V120 9999 FEW020 27/22 Q1011 NOSIG


Station Type Date Time Source
VTSP Decoded METAR 2021/03/05 01:00 UTC NOAA

Phuket Airport, Thailand (VTSP) 08-07N 098-19E 10M
Mar 04, 2021 - 08:00 PM EST / 2021.03.05 0100 UTC
Wind: from the NE (050 degrees) at 3 MPH (3 KT) (direction variable):0
Visibility: greater than 7 mile(s):0
Sky conditions: mostly clear
Temperature: 80 F (27 C)
Dew Point: 71 F (22 C)
Relative Humidity: 74%
Pressure (altimeter): 29.85 in. Hg (1011 hPa)
ob: VTSP 050100Z 05003KT 350V120 9999 FEW020 27/22 Q1011 NOSIG
cycle: 1

Station Type Date Time Source
VTSP TAF 2021/03/04 18:37 UTC NOAA

TAF VTSP 041700Z 0418/0524 00000KT 9999 FEW020
BECMG 0500/0502 10006KT

Example: see airport list